Time;durP1;ratioP1;P1;durP2;ratioP2;P2;SDS_P1;SDS_P2;PMS_P1;PMS_P2;Temp;Humidity;BMP_temperature;BMP_pressure;BME280_temperature;BME280_humidity;BME280_pressure;Samples;Min_cycle;Max_cycle;Signal;HPM_P1;HPM_P2
2022/12/29 00:02:23;;;;;;;65.97;37.42;;;5.60;79.30;;;;;;4941437;29;20027;-15
2022/12/29 00:04:52;;;;;;;44.70;28.40;;;5.60;78.40;;;;;;4941057;29;20031;-16
2022/12/29 00:07:18;;;;;;;55.83;31.67;;;5.50;77.90;;;;;;4941096;29;20027;-16
2022/12/29 00:09:44;;;;;;;62.38;35.70;;;5.50;77.90;;;;;;4941247;29;20381;-16
2022/12/29 00:12:10;;;;;;;58.65;35.42;;;5.60;77.70;;;;;;4941125;29;20038;-16
2022/12/29 00:17:20;;;;;;;53.05;30.33;;;5.60;77.30;;;;;;4941155;29;20167;-16
2022/12/29 00:36:22;;;;;;;47.45;27.45;;;5.90;77.00;;;;;;4940428;29;20126;-15
2022/12/29 00:44:28;;;;;;;;;;;5.90;77.40;;;;;;4938501;29;20387;-15
2022/12/29 00:46:54;;;;;;;45.55;25.38;;;6.00;77.60;;;;;;4936369;29;19906;-14
2022/12/29 00:49:31;;;;;;;45.72;27.02;;;6.00;77.40;;;;;;4936419;29;20024;-16
2022/12/29 00:52:06;;;;;;;38.50;22.73;;;6.00;77.20;;;;;;4937685;29;20027;-12
2022/12/29 00:54:35;;;;;;;34.58;22.05;;;6.00;76.90;;;;;;4937933;29;20325;-17
2022/12/29 00:57:02;;;;;;;42.47;26.33;;;6.00;77.50;;;;;;4937780;29;20028;-16
2022/12/29 00:59:28;;;;;;;44.15;24.10;;;6.00;77.30;;;;;;4937356;29;20048;-16
2022/12/29 01:01:54;;;;;;;54.17;30.73;;;6.00;77.00;;;;;;4937790;29;20036;-15
2022/12/29 01:04:22;;;;;;;47.58;29.25;;;6.10;77.60;;;;;;4937452;29;20476;-13
2022/12/29 01:06:49;;;;;;;50.35;31.25;;;6.00;78.10;;;;;;4937178;29;20032;-15
2022/12/29 01:12:00;;;;;;;46.42;29.25;;;6.00;77.40;;;;;;4937938;29;20439;-16
2022/12/29 01:14:26;;;;;;;47.10;28.63;;;5.90;77.30;;;;;;4937525;29;20103;-14
2022/12/29 01:16:52;;;;;;;45.22;26.25;;;5.90;77.60;;;;;;4937021;29;20099;-17
2022/12/29 01:19:19;;;;;;;45.97;26.45;;;5.90;77.60;;;;;;4937705;29;20172;-14
2022/12/29 01:21:46;;;;;;;39.58;23.75;;;5.90;78.00;;;;;;4937448;29;20119;-18
2022/12/29 01:24:12;;;;;;;39.72;22.92;;;5.90;77.70;;;;;;4936833;29;20480;-16
2022/12/29 01:26:37;;;;;;;36.20;22.60;;;5.90;77.70;;;;;;4937074;29;20024;-15
2022/12/29 01:29:03;;;;;;;30.88;20.33;;;5.90;77.70;;;;;;4936680;29;20028;-13
2022/12/29 01:31:29;;;;;;;44.33;25.63;;;5.90;77.70;;;;;;4936899;29;20023;-13
2022/12/29 01:33:55;;;;;;;49.78;26.75;;;6.00;77.40;;;;;;4936994;29;20031;-15
2022/12/29 01:36:21;;;;;;;33.70;20.30;;;6.00;77.30;;;;;;4937031;29;20031;-15
2022/12/29 01:38:46;;;;;;;26.77;17.70;;;6.00;77.30;;;;;;4937150;29;20030;-15
2022/12/29 01:41:14;;;;;;;31.52;20.08;;;6.00;77.10;;;;;;4936910;29;20536;-13
2022/12/29 01:43:46;;;;;;;25.88;17.63;;;6.00;77.20;;;;;;4936650;29;20047;-16
2022/12/29 01:46:23;;;;;;;33.17;19.80;;;6.10;77.20;;;;;;4936901;29;20062;-17
2022/12/29 01:49:14;;;;;;;33.63;21.15;;;6.00;76.90;;;;;;4936400;29;20031;-17
2022/12/29 01:51:53;;;;;;;37.63;22.90;;;6.10;76.90;;;;;;4928637;29;20032;-14
2022/12/29 01:54:27;;;;;;;35.67;22.23;;;6.10;76.80;;;;;;4936855;29;20035;-16
2022/12/29 01:56:56;;;;;;;36.35;21.20;;;6.20;76.90;;;;;;4937187;29;20488;-14
2022/12/29 01:59:26;;;;;;;30.80;17.95;;;6.10;77.00;;;;;;4936340;29;20365;-15
2022/12/29 02:01:52;;;;;;;27.70;17.90;;;6.10;76.90;;;;;;4936758;29;20019;-13
2022/12/29 02:04:18;;;;;;;37.97;22.08;;;6.10;76.70;;;;;;4936403;29;20455;-15
2022/12/29 02:06:56;;;;;;;29.52;19.13;;;6.10;77.00;;;;;;4936457;29;20022;-15
2022/12/29 02:09:23;;;;;;;27.83;16.48;;;6.00;76.80;;;;;;4936205;29;20484;-16
2022/12/29 02:11:49;;;;;;;40.58;22.83;;;6.00;76.80;;;;;;4936225;29;20441;-15
2022/12/29 02:14:15;;;;;;;44.45;26.15;;;6.00;77.10;;;;;;4936218;29;20028;-13
2022/12/29 02:16:41;;;;;;;47.30;28.85;;;5.90;77.00;;;;;;4936463;29;20098;-16
2022/12/29 02:19:44;;;;;;;47.65;29.35;;;5.90;76.90;;;;;;4935794;29;20503;-17
2022/12/29 02:22:21;;;;;;;48.65;29.67;;;5.80;77.00;;;;;;4936352;29;20119;-15
2022/12/29 02:25:05;;;;;;;42.42;26.25;;;5.70;77.20;;;;;;4935973;29;20047;-17
2022/12/29 02:27:46;;;;;;;39.78;24.73;;;5.60;77.50;;;;;;4936676;29;20368;-17
2022/12/29 02:30:29;;;;;;;50.45;29.20;;;5.60;77.80;;;;;;4935870;29;20038;-17
2022/12/29 02:33:01;;;;;;;45.33;27.25;;;5.60;77.80;;;;;;4936039;29;20038;-16
2022/12/29 02:35:54;;;;;;;41.95;25.77;;;5.60;77.80;;;;;;4936172;29;20028;-15
2022/12/29 02:38:43;;;;;;;45.75;26.10;;;5.60;77.80;;;;;;4935986;29;20414;-17
2022/12/29 02:41:28;;;;;;;46.17;28.73;;;5.60;77.90;;;;;;4935425;29;20036;-17
2022/12/29 02:44:08;;;;;;;44.47;27.95;;;5.60;77.90;;;;;;4935650;29;20055;-18
2022/12/29 02:46:54;;;;;;;41.95;26.52;;;5.50;77.90;;;;;;4935609;29;20038;-16
2022/12/29 02:49:32;;;;;;;46.03;27.55;;;5.50;78.00;;;;;;4935636;29;20484;-17
2022/12/29 02:52:00;;;;;;;49.97;28.13;;;5.50;78.00;;;;;;4935961;29;20034;-17
2022/12/29 02:54:42;;;;;;;48.10;26.98;;;5.50;78.20;;;;;;4935511;29;20384;-17
2022/12/29 02:57:21;;;;;;;44.75;26.38;;;5.50;78.30;;;;;;4935651;29;20038;-17
2022/12/29 03:00:07;;;;;;;42.65;26.02;;;5.50;78.20;;;;;;4934703;29;20063;-17
2022/12/29 03:03:04;;;;;;;42.92;25.25;;;5.50;78.30;;;;;;4935731;29;20119;-15
2022/12/29 03:06:02;;;;;;;35.53;22.48;;;5.50;78.50;;;;;;4935740;29;20035;-14
2022/12/29 03:08:49;;;;;;;41.40;25.27;;;5.50;78.60;;;;;;4908007;29;20438;-15
2022/12/29 03:17:14;;;;;;;45.08;24.40;;;5.60;78.50;;;;;;4935344;29;20131;-17
2022/12/29 03:19:47;;;;;;;30.70;18.50;;;5.60;78.50;;;;;;4935467;29;20035;-17
2022/12/29 03:22:26;;;;;;;38.92;22.00;;;5.60;78.50;;;;;;4936000;29;20193;-16
2022/12/29 03:24:57;;;;;;;31.52;18.55;;;5.60;78.70;;;;;;4934848;29;20082;-18
2022/12/29 03:27:32;;;;;;;29.35;19.10;;;5.50;78.50;;;;;;4935500;29;20027;-18
2022/12/29 03:30:02;;;;;;;62.35;34.10;;;5.50;78.70;;;;;;4933840;29;20128;-17
2022/12/29 03:32:33;;;;;;;46.53;26.45;;;5.50;78.70;;;;;;4935140;29;20032;-18
2022/12/29 03:35:01;;;;;;;35.38;20.60;;;5.50;78.70;;;;;;4935005;29;20098;-16
2022/12/29 03:37:36;;;;;;;56.03;29.17;;;5.50;78.80;;;;;;4935049;29;20527;-16
2022/12/29 03:40:04;;;;;;;51.65;29.25;;;5.50;78.80;;;;;;4934924;29;20071;-17
2022/12/29 03:42:33;;;;;;;38.55;22.67;;;5.50;78.80;;;;;;4935190;29;20051;-22
2022/12/29 03:44:59;;;;;;;46.00;26.80;;;5.40;78.70;;;;;;4934849;29;20099;-17
2022/12/29 03:47:25;;;;;;;46.05;25.30;;;5.50;79.00;;;;;;4935513;29;20032;-17
2022/12/29 03:49:52;;;;;;;45.65;27.02;;;5.50;79.10;;;;;;4935350;29;20028;-17
2022/12/29 03:52:18;;;;;;;37.22;21.77;;;5.50;78.70;;;;;;4934921;29;20039;-17
2022/12/29 03:54:44;;;;;;;31.98;19.77;;;5.50;78.80;;;;;;4935037;29;20028;-17
2022/12/29 03:57:11;;;;;;;34.88;20.50;;;5.50;79.00;;;;;;4935001;29;20039;-18
2022/12/29 03:59:37;;;;;;;30.45;19.48;;;5.50;78.80;;;;;;4935027;29;20036;-19
2022/12/29 04:02:03;;;;;;;32.78;19.63;;;5.50;79.00;;;;;;4935082;29;20043;-17
2022/12/29 04:04:28;;;;;;;28.60;17.75;;;5.60;79.20;;;;;;4934977;29;20040;-17
2022/12/29 04:06:54;;;;;;;33.95;18.85;;;5.60;78.80;;;;;;4934623;29;20032;-18
2022/12/29 04:09:21;;;;;;;31.08;18.48;;;5.70;78.70;;;;;;4935077;29;20028;-17
2022/12/29 04:11:46;;;;;;;29.63;17.17;;;5.80;78.60;;;;;;4936724;29;20134;-17
2022/12/29 04:14:18;;;;;;;34.78;20.75;;;5.80;78.40;;;;;;4938309;29;20407;-18
2022/12/29 04:16:44;;;;;;;30.77;18.48;;;5.90;78.60;;;;;;4938383;29;20075;-16
2022/12/29 04:19:10;;;;;;;25.90;16.52;;;5.90;78.80;;;;;;4938138;29;20027;-16
2022/12/29 04:21:36;;;;;;;25.50;15.68;;;5.90;78.70;;;;;;4938618;29;20030;-17
2022/12/29 04:24:02;;;;;;;25.25;15.52;;;5.90;78.70;;;;;;4938060;29;20052;-16
2022/12/29 04:26:28;;;;;;;29.15;17.00;;;5.90;78.30;;;;;;4938216;29;20205;-18
2022/12/29 04:28:54;;;;;;;35.67;20.83;;;6.00;78.50;;;;;;4937951;29;20105;-17
2022/12/29 04:31:20;;;;;;;42.45;23.73;;;6.00;78.70;;;;;;4938053;29;20051;-17
2022/12/29 04:33:46;;;;;;;38.45;23.40;;;6.00;78.50;;;;;;4938552;29;20376;-18
2022/12/29 04:36:12;;;;;;;39.03;22.25;;;6.00;78.50;;;;;;4938700;29;20073;-17
2022/12/29 04:38:37;;;;;;;33.65;19.50;;;5.90;78.70;;;;;;4938226;29;20032;-18
2022/12/29 04:41:04;;;;;;;28.73;17.55;;;6.00;78.50;;;;;;4937643;29;20039;-17
2022/12/29 04:43:30;;;;;;;32.42;20.10;;;6.00;78.50;;;;;;4938088;29;20031;-18
2022/12/29 04:45:56;;;;;;;31.88;19.48;;;6.00;78.70;;;;;;4937759;29;20031;-17
2022/12/29 04:48:22;;;;;;;34.50;20.23;;;6.10;78.60;;;;;;4937895;29;20032;-17
2022/12/29 04:50:49;;;;;;;27.83;17.98;;;6.10;78.70;;;;;;4937638;29;20027;-19
2022/12/29 04:53:16;;;;;;;32.33;18.77;;;6.10;78.90;;;;;;4937920;29;20039;-18
2022/12/29 04:55:41;;;;;;;34.58;21.10;;;6.10;79.00;;;;;;4937968;29;20039;-16
2022/12/29 04:58:07;;;;;;;28.00;17.48;;;6.00;79.00;;;;;;4937413;29;20027;-17
2022/12/29 05:00:34;;;;;;;31.90;19.23;;;6.00;79.10;;;;;;4937825;29;20039;-18
2022/12/29 05:03:00;;;;;;;32.60;19.73;;;6.00;79.10;;;;;;4937251;29;20404;-17
2022/12/29 05:05:26;;;;;;;36.72;20.73;;;6.00;79.10;;;;;;4937481;29;20023;-17
2022/12/29 05:07:51;;;;;;;32.35;19.60;;;6.00;79.10;;;;;;4937429;29;20043;-17
2022/12/29 05:10:18;;;;;;;28.30;16.23;;;6.00;79.20;;;;;;4937508;29;20023;-15
2022/12/29 05:12:44;;;;;;;29.58;16.80;;;6.00;79.10;;;;;;4937255;29;20024;-18
2022/12/29 05:15:11;;;;;;;30.70;18.00;;;5.90;79.10;;;;;;4935793;29;20024;-18
2022/12/29 05:17:37;;;;;;;24.08;14.85;;;6.00;79.20;;;;;;4937233;29;20042;-17
2022/12/29 05:20:04;;;;;;;28.92;17.63;;;5.90;79.20;;;;;;4937414;29;20516;-18
2022/12/29 05:22:30;;;;;;;33.78;18.90;;;5.90;79.30;;;;;;4936772;29;20031;-17
2022/12/29 05:24:56;;;;;;;37.90;21.48;;;5.90;79.10;;;;;;4936370;29;20114;-18
2022/12/29 05:27:22;;;;;;;35.80;21.10;;;5.90;79.00;;;;;;4937648;29;20027;-17
2022/12/29 05:29:48;;;;;;;26.08;16.42;;;5.90;79.10;;;;;;4937325;29;20477;-17
2022/12/29 05:32:14;;;;;;;29.98;18.33;;;5.90;79.20;;;;;;4937277;29;20027;-17
2022/12/29 05:34:40;;;;;;;31.13;19.20;;;5.90;79.30;;;;;;4937161;29;20513;-18
2022/12/29 05:37:05;;;;;;;31.92;19.75;;;5.80;79.20;;;;;;4936624;29;20396;-17
2022/12/29 05:39:31;;;;;;;28.17;17.40;;;5.80;79.20;;;;;;4937123;29;20038;-18
2022/12/29 05:41:57;;;;;;;36.88;21.10;;;5.80;79.20;;;;;;4936772;29;20477;-17
2022/12/29 05:44:23;;;;;;;34.20;20.40;;;5.70;79.40;;;;;;4936560;29;20028;-17
2022/12/29 05:46:49;;;;;;;32.42;17.63;;;5.60;79.50;;;;;;4936721;29;20038;-18
2022/12/29 05:49:16;;;;;;;29.52;18.10;;;5.60;79.60;;;;;;4936925;29;20023;-17
2022/12/29 05:51:42;;;;;;;32.70;20.42;;;5.60;79.70;;;;;;4936770;29;20028;-18
2022/12/29 05:54:07;;;;;;;29.38;17.15;;;5.60;79.70;;;;;;4936702;29;20111;-17
2022/12/29 05:56:33;;;;;;;33.35;19.40;;;5.60;79.80;;;;;;4936550;29;20031;-17
2022/12/29 05:58:59;;;;;;;31.40;19.52;;;5.60;79.70;;;;;;4936028;29;20651;-18
2022/12/29 06:01:25;;;;;;;31.88;18.40;;;5.50;79.70;;;;;;4936499;29;20036;-17
2022/12/29 06:03:51;;;;;;;41.22;21.98;;;5.50;79.70;;;;;;4936394;29;20479;-18
2022/12/29 06:06:17;;;;;;;36.50;21.38;;;5.50;79.80;;;;;;4935084;29;20031;-17
2022/12/29 06:08:43;;;;;;;35.03;19.85;;;5.50;79.90;;;;;;4936634;29;20024;-18
2022/12/29 06:11:09;;;;;;;57.05;28.45;;;5.50;79.90;;;;;;4936127;29;20031;-17
2022/12/29 06:13:35;;;;;;;36.55;20.63;;;5.50;79.90;;;;;;4936190;29;20028;-18
2022/12/29 06:16:01;;;;;;;40.95;21.63;;;5.50;80.10;;;;;;4936383;29;20110;-18
2022/12/29 06:18:27;;;;;;;31.63;17.85;;;5.50;80.30;;;;;;4936237;29;20052;-18
2022/12/29 06:20:53;;;;;;;33.80;18.75;;;5.60;80.30;;;;;;4936198;29;20036;-18
2022/12/29 06:23:19;;;;;;;30.58;17.60;;;5.60;80.40;;;;;;4936169;29;20086;-16
2022/12/29 06:25:48;;;;;;;30.00;17.55;;;5.60;80.40;;;;;;4936134;29;20028;-18
2022/12/29 06:28:14;;;;;;;26.77;16.08;;;5.70;80.40;;;;;;4936192;29;20035;-18
2022/12/29 06:30:42;;;;;;;32.35;18.75;;;5.70;80.40;;;;;;4936065;29;20078;-16
2022/12/29 06:33:08;;;;;;;31.77;17.90;;;5.80;80.40;;;;;;4935687;29;20118;-16
2022/12/29 06:35:34;;;;;;;35.47;19.45;;;5.80;80.40;;;;;;4935068;29;20059;-18
2022/12/29 06:38:00;;;;;;;37.00;20.13;;;5.90;80.20;;;;;;4935709;29;20035;-16
2022/12/29 06:40:26;;;;;;;39.90;19.95;;;5.90;80.30;;;;;;4934350;29;20032;-17
2022/12/29 06:42:52;;;;;;;42.08;23.95;;;5.90;80.50;;;;;;4935378;29;20028;-18
2022/12/29 06:45:17;;;;;;;26.70;16.25;;;5.90;80.20;;;;;;4935731;29;20132;-17
2022/12/29 06:47:43;;;;;;;38.50;22.25;;;5.90;80.20;;;;;;4934750;29;20118;-16
2022/12/29 06:50:09;;;;;;;26.38;16.48;;;5.90;80.20;;;;;;4935555;29;20028;-17
2022/12/29 06:52:35;;;;;;;34.22;19.42;;;5.90;80.30;;;;;;4935591;29;20031;-17
2022/12/29 06:55:01;;;;;;;38.70;21.77;;;5.90;80.40;;;;;;4935452;29;20027;-18
2022/12/29 06:57:27;;;;;;;29.67;17.40;;;5.90;80.40;;;;;;4935775;29;20024;-17
2022/12/29 06:59:55;;;;;;;27.65;15.93;;;6.00;80.30;;;;;;4935357;29;20027;-15
2022/12/29 07:02:22;;;;;;;39.15;21.83;;;6.00;80.30;;;;;;4935379;29;20488;-18
2022/12/29 07:04:48;;;;;;;37.60;21.67;;;6.00;80.20;;;;;;4933918;29;20024;-19
2022/12/29 07:07:13;;;;;;;231.63;105.95;;;6.00;79.90;;;;;;4935731;29;20115;-18
2022/12/29 07:09:39;;;;;;;163.07;77.40;;;5.90;79.80;;;;;;4935679;29;20063;-18
2022/12/29 07:12:05;;;;;;;94.80;48.10;;;5.80;79.80;;;;;;4935563;29;20027;-18
2022/12/29 07:14:31;;;;;;;85.30;40.30;;;5.80;80.00;;;;;;4935729;29;20042;-16
2022/12/29 07:16:57;;;;;;;60.78;31.17;;;5.80;80.00;;;;;;4935477;29;20032;-16
2022/12/29 07:19:23;;;;;;;48.60;26.42;;;5.70;80.10;;;;;;4935183;29;20058;-17
2022/12/29 07:21:49;;;;;;;45.85;24.90;;;5.80;80.30;;;;;;4935508;29;20039;-18
2022/12/29 07:24:15;;;;;;;46.22;22.50;;;5.80;80.20;;;;;;4935177;29;20047;-16
2022/12/29 07:26:41;;;;;;;39.33;21.40;;;5.90;80.20;;;;;;4935177;29;20038;-18
2022/12/29 07:29:07;;;;;;;32.60;19.63;;;5.90;79.90;;;;;;4935119;29;20032;-18
2022/12/29 07:31:33;;;;;;;32.13;18.58;;;6.00;79.80;;;;;;4935412;29;20020;-17
2022/12/29 07:33:59;;;;;;;27.83;17.20;;;6.10;79.70;;;;;;4935050;29;20484;-17
2022/12/29 07:36:25;;;;;;;29.45;17.80;;;6.20;79.70;;;;;;4935404;29;20036;-16
2022/12/29 07:38:51;;;;;;;27.40;17.25;;;6.20;79.90;;;;;;4935192;29;20043;-17
2022/12/29 07:41:16;;;;;;;28.17;16.80;;;6.20;79.60;;;;;;4933773;29;20504;-17
2022/12/29 07:43:46;;;;;;;28.73;17.08;;;6.30;79.40;;;;;;4935256;29;20102;-16
2022/12/29 07:46:12;;;;;;;28.17;16.83;;;6.30;79.80;;;;;;4935576;29;20110;-18
2022/12/29 07:48:38;;;;;;;21.67;13.98;;;6.40;79.90;;;;;;4939155;29;20114;-17
2022/12/29 07:51:04;;;;;;;25.27;15.27;;;6.50;79.80;;;;;;4938625;29;20099;-17
2022/12/29 07:53:30;;;;;;;24.23;14.80;;;6.50;79.90;;;;;;4938708;29;20035;-16
2022/12/29 07:55:56;;;;;;;27.15;16.15;;;6.60;79.70;;;;;;4938748;29;20054;-18
2022/12/29 07:58:22;;;;;;;33.65;19.50;;;6.70;79.20;;;;;;4938946;29;20027;-17
2022/12/29 08:00:52;;;;;;;39.13;23.25;;;6.80;79.60;;;;;;4938503;29;20376;-23
2022/12/29 08:03:18;;;;;;;44.17;24.92;;;6.70;79.40;;;;;;4939369;29;20019;-18
2022/12/29 08:05:44;;;;;;;36.78;21.55;;;6.70;79.40;;;;;;4938997;29;20031;-18
2022/12/29 08:08:09;;;;;;;39.47;20.92;;;6.70;79.30;;;;;;4938623;29;20121;-18
2022/12/29 08:10:35;;;;;;;31.23;18.60;;;6.70;79.30;;;;;;4938454;29;20062;-18
2022/12/29 08:13:01;;;;;;;35.60;20.20;;;6.80;79.10;;;;;;4938222;29;20428;-17
2022/12/29 08:15:30;;;;;;;30.80;19.58;;;6.90;78.90;;;;;;4938389;29;20063;-18
2022/12/29 08:17:56;;;;;;;35.75;21.00;;;7.00;78.90;;;;;;4938699;29;20038;-19
2022/12/29 08:20:22;;;;;;;37.10;21.58;;;7.10;78.90;;;;;;4938508;29;20034;-16
2022/12/29 08:22:48;;;;;;;33.03;21.05;;;7.20;78.90;;;;;;4937972;29;20032;-16
2022/12/29 08:25:13;;;;;;;36.85;21.85;;;7.20;78.90;;;;;;4938532;29;20027;-18
2022/12/29 08:27:39;;;;;;;33.60;20.88;;;7.30;78.90;;;;;;4938876;29;20084;-16
2022/12/29 08:30:06;;;;;;;37.97;23.75;;;7.40;78.70;;;;;;4938307;29;20540;-15
2022/12/29 08:32:32;;;;;;;36.05;21.95;;;7.40;78.80;;;;;;4938050;29;20035;-17
2022/12/29 08:34:58;;;;;;;40.33;22.63;;;7.40;78.60;;;;;;4937934;29;20024;-18
2022/12/29 08:37:24;;;;;;;45.28;27.00;;;7.40;78.70;;;;;;4938241;29;20028;-17
2022/12/29 08:39:50;;;;;;;45.25;29.45;;;7.50;78.60;;;;;;4938039;29;20122;-18
2022/12/29 08:42:16;;;;;;;38.35;24.50;;;7.50;78.80;;;;;;4938345;29;20090;-15
2022/12/29 08:44:42;;;;;;;39.83;24.48;;;7.50;78.60;;;;;;4937772;29;20050;-17
2022/12/29 08:47:10;;;;;;;38.40;23.60;;;7.60;78.60;;;;;;4937897;29;20035;-18
2022/12/29 08:49:36;;;;;;;41.75;25.30;;;7.70;78.50;;;;;;4937988;29;20020;-15
2022/12/29 08:52:02;;;;;;;35.22;22.50;;;7.70;78.60;;;;;;4937913;29;20038;-16
2022/12/29 08:54:28;;;;;;;45.75;26.98;;;7.80;78.40;;;;;;4937941;29;20030;-17
2022/12/29 08:56:54;;;;;;;34.13;21.50;;;7.90;78.20;;;;;;4937360;29;20032;-17
2022/12/29 08:59:20;;;;;;;34.85;21.02;;;7.90;78.40;;;;;;4936691;29;20044;-17
2022/12/29 09:01:46;;;;;;;32.22;20.05;;;8.00;78.20;;;;;;4937809;29;20055;-18
2022/12/29 09:04:12;;;;;;;31.05;20.30;;;8.10;78.20;;;;;;4937772;29;20063;-18
2022/12/29 09:06:38;;;;;;;32.97;19.63;;;8.20;78.20;;;;;;4936375;29;20039;-18
2022/12/29 09:09:04;;;;;;;27.95;17.60;;;8.20;78.10;;;;;;4937581;29;20062;-18
2022/12/29 09:11:29;;;;;;;29.67;17.52;;;8.30;78.00;;;;;;4937829;29;20570;-17
2022/12/29 09:13:55;;;;;;;33.58;20.42;;;8.30;78.00;;;;;;4937476;29;20024;-18
2022/12/29 09:16:23;;;;;;;29.88;18.83;;;8.40;77.70;;;;;;4935933;29;20063;-16
2022/12/29 09:18:49;;;;;;;31.70;19.35;;;8.40;77.60;;;;;;4937069;29;20035;-18
2022/12/29 09:21:15;;;;;;;30.77;19.80;;;8.50;77.60;;;;;;4937313;29;20036;-17
2022/12/29 09:23:41;;;;;;;29.63;19.20;;;8.50;77.40;;;;;;4937042;29;20412;-16
2022/12/29 09:26:08;;;;;;;28.38;17.95;;;8.60;77.50;;;;;;4937125;29;20396;-16
2022/12/29 09:28:34;;;;;;;30.10;17.02;;;8.70;77.50;;;;;;4936983;29;20031;-18
2022/12/29 09:31:01;;;;;;;28.05;16.50;;;8.90;77.10;;;;;;4937144;29;20023;-17
2022/12/29 09:33:27;;;;;;;41.38;22.92;;;9.00;77.10;;;;;;4937003;29;20026;-18
2022/12/29 09:35:58;;;;;;;42.35;22.75;;;9.20;76.90;;;;;;4936910;29;20039;-14
2022/12/29 09:38:26;;;;;;;34.47;20.88;;;9.30;76.30;;;;;;4936806;29;20031;-14
2022/12/29 09:41:00;;;;;;;30.20;18.65;;;9.40;76.30;;;;;;4936750;29;20187;-14
2022/12/29 09:43:44;;;;;;;25.73;15.82;;;9.40;76.10;;;;;;4936988;29;20098;-14
2022/12/29 09:46:33;;;;;;;28.63;18.13;;;9.50;75.80;;;;;;4936725;29;20023;-15
2022/12/29 09:49:05;;;;;;;29.15;18.17;;;9.60;75.70;;;;;;4927556;29;20053;-15
2022/12/29 09:51:32;;;;;;;24.33;15.45;;;9.60;75.60;;;;;;4937074;29;20035;-17
2022/12/29 09:54:24;;;;;;;20.00;13.32;;;9.80;75.60;;;;;;4936670;29;20046;-17
2022/12/29 09:56:52;;;;;;;24.88;14.68;;;9.90;75.40;;;;;;4925973;29;20028;-16
2022/12/29 09:59:40;;;;;;;21.27;13.25;;;10.00;75.00;;;;;;4936321;29;20428;-17
2022/12/29 10:02:40;;;;;;;27.65;17.73;;;10.20;75.00;;;;;;4936298;29;20032;-16
2022/12/29 10:05:26;;;;;;;33.05;19.15;;;10.30;74.50;;;;;;4936160;29;20083;-17
2022/12/29 10:08:22;;;;;;;27.90;15.88;;;10.30;73.30;;;;;;4936348;29;20186;-17
2022/12/29 10:11:07;;;;;;;27.67;15.90;;;10.20;73.40;;;;;;4935810;29;20027;-17
2022/12/29 10:13:51;;;;;;;22.15;14.45;;;10.20;73.60;;;;;;4936431;29;20042;-17
2022/12/29 10:16:32;;;;;;;25.33;15.95;;;10.20;73.70;;;;;;4936133;29;20055;-14
2022/12/29 10:19:26;;;;;;;25.73;16.73;;;10.20;73.70;;;;;;4936293;29;20027;-15
2022/12/29 10:22:10;;;;;;;27.60;17.23;;;10.30;73.00;;;;;;4936411;29;20110;-15
2022/12/29 10:24:39;;;;;;;27.63;17.25;;;10.30;73.10;;;;;;4936040;29;20052;-14
2022/12/29 10:27:13;;;;;;;27.20;18.15;;;10.30;73.10;;;;;;4935755;29;20477;-15
2022/12/29 10:29:52;;;;;;;22.08;14.25;;;10.30;73.20;;;;;;4935866;29;20467;-14
2022/12/29 10:32:27;;;;;;;29.45;17.45;;;10.40;73.20;;;;;;4935927;29;20035;-15
2022/12/29 10:34:58;;;;;;;29.98;17.85;;;10.40;73.40;;;;;;4935799;29;20481;-17
2022/12/29 10:37:48;;;;;;;20.85;13.75;;;10.40;73.30;;;;;;4935811;29;20506;-15
2022/12/29 10:40:29;;;;;;;27.60;16.55;;;10.40;73.30;;;;;;4935715;29;20024;-16
2022/12/29 10:42:57;;;;;;;26.17;17.55;;;10.50;73.00;;;;;;4935812;29;20044;-15
2022/12/29 10:45:29;;;;;;;26.98;17.13;;;10.50;72.90;;;;;;4935601;29;20024;-17
2022/12/29 10:48:11;;;;;;;27.45;17.92;;;10.50;73.00;;;;;;4935969;29;20101;-15
2022/12/29 10:50:42;;;;;;;27.95;16.73;;;10.50;72.70;;;;;;4935725;29;20034;-16
2022/12/29 10:53:17;;;;;;;27.50;17.33;;;10.50;72.90;;;;;;4935721;29;20127;-16
2022/12/29 10:55:43;;;;;;;28.95;16.92;;;10.60;72.40;;;;;;4935761;29;20024;-15
2022/12/29 10:58:13;;;;;;;23.08;14.75;;;10.70;72.80;;;;;;4935371;29;20047;-17
2022/12/29 11:00:39;;;;;;;25.42;16.13;;;10.70;72.80;;;;;;4935342;29;20027;-16
2022/12/29 11:03:35;;;;;;;27.02;17.63;;;10.80;72.10;;;;;;4935192;29;20100;-15
2022/12/29 11:06:27;;;;;;;33.63;21.17;;;10.90;72.30;;;;;;4935670;29;20035;-15
2022/12/29 11:09:09;;;;;;;27.67;17.65;;;11.10;71.70;;;;;;4935252;29;20060;-13
2022/12/29 11:11:36;;;;;;;33.28;20.65;;;11.20;71.90;;;;;;4935519;29;20034;-16
2022/12/29 11:14:31;;;;;;;25.33;16.70;;;11.20;70.70;;;;;;4935534;29;20060;-14
2022/12/29 11:16:59;;;;;;;24.75;16.08;;;11.30;70.30;;;;;;4876540;29;20040;-15
2022/12/29 11:19:30;;;;;;;28.50;18.85;;;11.30;70.40;;;;;;4876601;29;20033;-16
2022/12/29 11:22:12;;;;;;;25.63;16.33;;;11.30;70.50;;;;;;4876251;29;20115;-16
2022/12/29 11:24:45;;;;;;;24.17;15.05;;;11.30;70.70;;;;;;4876521;29;20427;-13
2022/12/29 11:27:23;;;;;;;25.87;15.80;;;11.40;70.80;;;;;;4876531;29;20127;-14
2022/12/29 11:29:50;;;;;;;29.40;18.23;;;11.40;70.30;;;;;;4876486;29;20041;-16
2022/12/29 11:32:25;;;;;;;21.30;13.90;;;11.50;69.00;;;;;;4876654;29;20029;-16
2022/12/29 11:34:51;;;;;;;21.25;14.65;;;11.60;70.00;;;;;;4876266;29;20041;-18
2022/12/29 11:37:40;;;;;;;24.00;15.98;;;11.70;70.20;;;;;;4861297;29;20040;-18
2022/12/29 11:40:10;;;;;;;22.88;13.75;;;11.80;70.00;;;;;;4876541;29;20052;-14
2022/12/29 11:42:36;;;;;;;21.98;14.43;;;11.90;70.00;;;;;;4876680;29;20037;-17
2022/12/29 11:45:23;;;;;;;26.02;15.68;;;12.00;69.70;;;;;;4876144;29;20041;-17
2022/12/29 11:47:53;;;;;;;24.20;14.93;;;12.20;68.00;;;;;;4876523;29;20045;-16
2022/12/29 11:50:25;;;;;;;28.70;17.00;;;12.30;69.00;;;;;;4876525;29;20434;-14
2022/12/29 11:52:58;;;;;;;26.45;15.38;;;12.40;68.10;;;;;;4882721;29;20054;-17
2022/12/29 11:55:26;;;;;;;26.48;15.75;;;12.40;67.80;;;;;;4897068;29;20032;-18
2022/12/29 11:57:57;;;;;;;23.50;14.50;;;12.40;68.60;;;;;;4897082;29;20064;-17
2022/12/29 12:00:27;;;;;;;25.10;15.68;;;12.40;68.10;;;;;;4896892;29;20072;-17
2022/12/29 12:03:02;;;;;;;22.65;13.73;;;12.50;68.00;;;;;;4896940;29;20120;-17
2022/12/29 12:05:31;;;;;;;24.23;16.27;;;12.70;67.40;;;;;;4897048;29;20039;-15
2022/12/29 12:08:25;;;;;;;32.80;17.23;;;12.70;67.20;;;;;;4897330;29;20036;-15
2022/12/29 12:11:16;;;;;;;22.98;14.45;;;12.80;67.00;;;;;;4887096;29;20040;-15
2022/12/29 12:14:09;;;;;;;23.30;14.27;;;12.80;65.30;;;;;;4896921;29;20036;-16
2022/12/29 12:16:48;;;;;;;24.50;15.63;;;12.80;66.50;;;;;;4897073;29;20100;-16
2022/12/29 12:19:28;;;;;;;23.35;15.23;;;12.80;66.00;;;;;;4896937;29;20044;-15
2022/12/29 12:22:11;;;;;;;23.58;15.05;;;12.80;65.60;;;;;;4896949;29;20029;-17
2022/12/29 12:24:56;;;;;;;28.73;18.13;;;12.80;66.50;;;;;;4928612;29;20051;-16
2022/12/29 12:27:29;;;;;;;25.70;15.85;;;12.90;66.50;;;;;;4935224;29;20260;-17
2022/12/29 12:30:11;;;;;;;25.55;16.27;;;13.00;66.30;;;;;;4934783;29;20032;-17
2022/12/29 12:32:51;;;;;;;22.52;14.50;;;13.00;66.00;;;;;;4935829;29;20500;-16
2022/12/29 12:36:10;;;;;;;22.50;14.65;;;12.90;66.10;;;;;;4938475;29;20031;-16
2022/12/29 12:38:53;;;;;;;19.60;12.40;;;12.90;65.90;;;;;;4875506;29;20071;-14
2022/12/29 12:41:46;;;;;;;24.13;14.07;;;12.90;66.50;;;;;;4938015;29;20147;-15
2022/12/29 12:44:24;;;;;;;25.48;16.75;;;12.90;66.20;;;;;;4937983;29;20063;-16
2022/12/29 12:47:10;;;;;;;24.17;15.20;;;12.90;64.50;;;;;;4938327;29;20403;-15
2022/12/29 12:49:45;;;;;;;20.77;13.65;;;12.80;65.50;;;;;;4938179;29;20114;-14
2022/12/29 12:52:37;;;;;;;23.42;14.25;;;12.70;65.30;;;;;;4937954;29;20034;-15
2022/12/29 12:55:25;;;;;;;22.48;14.07;;;12.60;66.40;;;;;;4937924;29;20092;-13
2022/12/29 12:57:58;;;;;;;19.70;12.60;;;12.60;66.90;;;;;;4937758;29;20055;-15
2022/12/29 13:00:24;;;;;;;20.13;13.65;;;12.60;67.10;;;;;;4937500;29;20036;-13
2022/12/29 13:03:04;;;;;;;21.98;13.65;;;12.60;67.00;;;;;;4937398;29;20063;-14
2022/12/29 13:05:42;;;;;;;28.05;17.05;;;12.70;67.10;;;;;;4938133;29;20063;-15
2022/12/29 13:08:11;;;;;;;17.15;11.40;;;12.70;67.00;;;;;;4937868;29;20565;-16
2022/12/29 13:11:01;;;;;;;26.88;16.83;;;12.60;66.80;;;;;;4937690;29;20036;-17
2022/12/29 13:13:57;;;;;;;26.75;17.13;;;12.60;66.70;;;;;;4937949;29;20040;-15
2022/12/29 13:16:35;;;;;;;26.55;15.75;;;12.60;67.10;;;;;;4937639;29;20026;-17
2022/12/29 13:19:19;;;;;;;27.17;18.25;;;12.40;67.20;;;;;;4937149;29;20031;-17
2022/12/29 13:22:00;;;;;;;28.27;18.45;;;12.30;67.60;;;;;;4937586;29;20059;-17
2022/12/29 13:24:38;;;;;;;24.08;15.32;;;12.20;67.60;;;;;;4937127;29;20130;-15
2022/12/29 13:27:16;;;;;;;26.33;17.98;;;12.00;67.80;;;;;;4936917;29;20031;-16
2022/12/29 13:29:59;;;;;;;33.10;19.77;;;11.90;68.10;;;;;;4936938;29;20572;-16
2022/12/29 13:32:49;;;;;;;29.13;18.17;;;11.80;68.30;;;;;;4937359;29;20499;-17